Time;durP1;ratioP1;P1;durP2;ratioP2;P2;SDS_P1;SDS_P2;PMS_P1;PMS_P2;Temp;Humidity;BMP_temperature;BMP_pressure;BME280_temperature;BME280_humidity;BME280_pressure;Samples;Min_cycle;Max_cycle;Signal;HPM_P1;HPM_P2
2022/08/02 00:01:32;;;;;;;1.75;1.20;;;13.80;79.80;;;;;;5034880;28;20344;-65
2022/08/02 00:03:58;;;;;;;3.25;1.30;;;13.70;79.80;;;;;;5033255;28;20032;-65
2022/08/02 00:06:25;;;;;;;0.93;0.90;;;13.60;80.10;;;;;;5016636;28;20204;-64
2022/08/02 00:08:50;;;;;;;2.55;1.30;;;13.60;80.80;;;;;;5034022;28;20030;-64
2022/08/02 00:11:16;;;;;;;3.33;1.10;;;13.50;80.80;;;;;;5015752;28;20390;-65
2022/08/02 00:13:41;;;;;;;1.20;1.05;;;13.40;81.20;;;;;;5034275;28;20024;-64
2022/08/02 00:16:08;;;;;;;3.55;2.00;;;13.30;81.90;;;;;;5033317;28;20569;-64
2022/08/02 00:18:34;;;;;;;5.88;1.30;;;13.30;81.70;;;;;;5034099;28;20386;-64
2022/08/02 00:20:59;;;;;;;1.45;1.17;;;13.30;81.90;;;;;;5015755;28;20029;-66
2022/08/02 00:23:25;;;;;;;2.60;1.30;;;13.40;82.00;;;;;;5033281;28;20029;-67
2022/08/02 00:25:50;;;;;;;1.85;1.30;;;13.50;82.20;;;;;;5033614;28;20107;-74
2022/08/02 00:28:16;;;;;;;3.50;1.30;;;13.60;82.40;;;;;;5034045;28;20547;-73
2022/08/02 00:30:42;;;;;;;5.10;1.60;;;13.50;82.70;;;;;;5015681;28;20026;-73
2022/08/02 00:33:07;;;;;;;1.77;1.30;;;13.50;82.50;;;;;;5033381;28;20022;-73
2022/08/02 00:35:34;;;;;;;2.67;1.30;;;13.40;82.50;;;;;;5015904;28;20572;-73
2022/08/02 00:38:01;;;;;;;2.55;1.58;;;13.30;82.90;;;;;;5014878;28;20033;-69
2022/08/02 00:40:26;;;;;;;3.15;1.45;;;13.30;83.10;;;;;;5034013;28;20018;-73
2022/08/02 00:43:09;;;;;;;1.77;1.33;;;13.30;83.40;;;;;;5033327;28;20032;-65
2022/08/02 00:45:40;;;;;;;2.47;1.38;;;13.30;83.60;;;;;;5033109;28;20022;-64
2022/08/02 00:48:07;;;;;;;5.38;1.65;;;13.30;83.70;;;;;;5033256;28;20109;-64
2022/08/02 00:50:34;;;;;;;2.53;1.10;;;13.30;83.80;;;;;;5033509;28;20052;-64
2022/08/02 00:53:00;;;;;;;2.03;1.40;;;13.30;83.80;;;;;;5032502;28;20103;-67
2022/08/02 00:55:26;;;;;;;3.92;1.40;;;13.30;84.00;;;;;;5015627;28;20080;-64
2022/08/02 00:57:52;;;;;;;2.17;1.20;;;13.30;84.30;;;;;;5033016;28;20468;-64
2022/08/02 01:00:19;;;;;;;2.03;1.20;;;13.20;84.40;;;;;;5014896;28;20021;-65
2022/08/02 01:02:45;;;;;;;2.35;1.20;;;13.10;84.80;;;;;;5033317;28;20029;-64
2022/08/02 01:05:11;;;;;;;3.42;1.40;;;13.10;85.10;;;;;;5029476;28;20053;-65
2022/08/02 01:07:37;;;;;;;3.25;1.50;;;13.00;85.40;;;;;;5012808;28;20026;-64
2022/08/02 01:10:04;;;;;;;2.55;1.38;;;12.90;86.00;;;;;;5011937;28;20022;-64
2022/08/02 01:12:29;;;;;;;2.83;1.48;;;12.80;86.30;;;;;;5012873;28;20435;-64
2022/08/02 01:14:57;;;;;;;2.78;1.55;;;12.80;86.80;;;;;;5013156;28;20105;-64
2022/08/02 01:17:33;;;;;;;4.18;1.70;;;12.80;87.10;;;;;;5013037;28;20033;-64
2022/08/02 01:20:04;;;;;;;4.75;1.50;;;12.70;87.30;;;;;;5012308;28;20049;-68
2022/08/02 01:22:41;;;;;;;2.00;1.40;;;12.70;87.70;;;;;;5013282;28;20021;-73
2022/08/02 01:25:17;;;;;;;4.30;1.42;;;12.60;88.10;;;;;;5012678;28;20478;-71
2022/08/02 01:28:02;;;;;;;2.28;1.50;;;12.60;88.20;;;;;;5012276;28;20471;-68
2022/08/02 01:30:30;;;;;;;4.15;1.58;;;12.50;88.50;;;;;;5013224;28;20036;-71
2022/08/02 01:33:00;;;;;;;4.22;1.75;;;12.40;89.10;;;;;;5012594;28;20022;-74
2022/08/02 01:35:55;;;;;;;2.83;1.30;;;12.30;88.90;;;;;;4994842;28;20053;-73
2022/08/02 01:38:34;;;;;;;2.55;1.30;;;12.20;89.90;;;;;;5008214;28;20048;-73
2022/08/02 01:41:01;;;;;;;2.78;1.45;;;12.20;90.10;;;;;;5027401;28;20501;-74
2022/08/02 01:43:29;;;;;;;2.60;1.27;;;12.20;90.20;;;;;;5012709;28;20032;-73
2022/08/02 01:45:57;;;;;;;2.97;1.70;;;12.20;90.30;;;;;;5013008;28;20021;-74
2022/08/02 01:48:25;;;;;;;2.75;1.40;;;12.30;90.30;;;;;;5011869;28;20022;-75
2022/08/02 01:50:51;;;;;;;4.50;1.50;;;12.30;90.30;;;;;;5027807;28;20076;-74
2022/08/02 01:53:19;;;;;;;2.95;1.60;;;12.30;90.30;;;;;;5012660;28;20030;-74
2022/08/02 01:55:48;;;;;;;3.05;1.30;;;12.30;90.30;;;;;;5012129;28;20026;-73
2022/08/02 01:58:17;;;;;;;1.83;1.35;;;12.20;90.30;;;;;;5012680;28;20400;-74
2022/08/02 02:00:45;;;;;;;3.75;1.50;;;12.10;90.40;;;;;;5012286;28;20080;-74
2022/08/02 02:03:18;;;;;;;3.25;1.50;;;12.10;90.60;;;;;;5011814;28;20502;-74
2022/08/02 02:05:47;;;;;;;3.30;1.75;;;12.10;90.70;;;;;;4994956;28;20172;-74
2022/08/02 02:08:14;;;;;;;5.15;1.80;;;12.10;90.90;;;;;;4994878;28;20052;-74
2022/08/02 02:10:41;;;;;;;2.88;1.55;;;12.10;90.90;;;;;;5011907;28;20084;-74
2022/08/02 02:13:13;;;;;;;2.78;1.70;;;12.10;91.10;;;;;;5011986;28;20125;-74
2022/08/02 02:15:43;;;;;;;2.25;1.60;;;12.10;91.20;;;;;;5012395;28;20028;-75
2022/08/02 02:18:12;;;;;;;1.90;1.40;;;12.10;91.30;;;;;;5027256;28;20073;-75
2022/08/02 02:20:37;;;;;;;5.20;1.60;;;12.00;91.30;;;;;;4994516;28;20463;-72
2022/08/02 02:23:03;;;;;;;1.55;1.40;;;12.00;91.40;;;;;;5011236;28;20037;-69
2022/08/02 02:25:29;;;;;;;2.97;1.40;;;12.00;91.50;;;;;;5012125;28;20022;-69
2022/08/02 02:28:03;;;;;;;5.05;1.63;;;12.00;91.70;;;;;;5011629;28;20230;-71
2022/08/02 02:30:31;;;;;;;3.47;1.65;;;11.90;91.80;;;;;;5011617;28;20038;-72
2022/08/02 02:33:00;;;;;;;2.30;1.48;;;11.90;91.90;;;;;;5011558;28;20536;-68
2022/08/02 02:35:35;;;;;;;3.63;1.70;;;11.90;92.00;;;;;;5011904;28;20061;-70
2022/08/02 02:38:03;;;;;;;2.58;1.58;;;11.90;92.10;;;;;;5011004;28;20497;-71
2022/08/02 02:40:30;;;;;;;3.22;1.70;;;11.90;92.20;;;;;;4994169;28;20022;-69
2022/08/02 02:42:58;;;;;;;4.18;1.90;;;11.90;92.20;;;;;;5011465;28;20106;-69
2022/08/02 02:45:24;;;;;;;2.28;1.50;;;11.80;92.30;;;;;;5011304;28;20026;-63
2022/08/02 02:47:52;;;;;;;3.67;1.85;;;11.80;92.40;;;;;;4993796;28;20021;-65
2022/08/02 02:50:18;;;;;;;5.40;1.90;;;11.80;92.40;;;;;;5026635;28;20026;-65
2022/08/02 02:52:46;;;;;;;2.78;1.67;;;11.80;92.50;;;;;;5011182;28;20479;-64
2022/08/02 02:55:12;;;;;;;3.13;1.58;;;11.80;92.50;;;;;;5011545;28;20515;-64
2022/08/02 02:57:38;;;;;;;4.75;1.90;;;12.00;92.40;;;;;;5011586;28;20092;-63
2022/08/02 03:00:08;;;;;;;4.00;1.73;;;12.00;92.30;;;;;;5010358;28;20101;-64
2022/08/02 03:02:37;;;;;;;2.60;1.48;;;12.10;92.30;;;;;;5011465;28;20041;-64
2022/08/02 03:05:04;;;;;;;2.53;1.55;;;12.10;92.30;;;;;;5025019;28;20213;-63
2022/08/02 03:07:32;;;;;;;3.75;1.50;;;12.20;92.20;;;;;;5011012;28;20113;-64
2022/08/02 03:09:58;;;;;;;2.45;1.70;;;12.20;92.10;;;;;;5009528;28;20060;-63
2022/08/02 03:12:24;;;;;;;4.35;1.70;;;12.20;92.10;;;;;;5010524;28;20058;-64
2022/08/02 03:14:50;;;;;;;5.32;1.60;;;12.20;92.10;;;;;;5010911;28;20458;-64
2022/08/02 03:17:16;;;;;;;2.70;1.90;;;12.20;92.10;;;;;;5026045;28;20408;-63
2022/08/02 03:19:42;;;;;;;3.88;1.60;;;12.20;92.30;;;;;;5010885;28;20446;-67
2022/08/02 03:22:07;;;;;;;3.72;1.63;;;12.20;92.10;;;;;;5010675;28;20025;-63
2022/08/02 03:24:33;;;;;;;3.53;2.00;;;12.10;92.10;;;;;;5011424;28;20036;-63
2022/08/02 03:26:58;;;;;;;4.97;1.73;;;12.20;92.10;;;;;;5010154;28;20470;-63
2022/08/02 03:29:24;;;;;;;2.83;2.10;;;12.10;92.30;;;;;;5011098;28;20710;-63
2022/08/02 03:31:50;;;;;;;3.78;1.73;;;12.10;92.40;;;;;;5011117;28;20343;-62
2022/08/02 03:34:16;;;;;;;3.85;1.60;;;12.10;92.40;;;;;;5014254;28;20049;-65
2022/08/02 03:36:42;;;;;;;3.75;1.90;;;12.00;92.50;;;;;;5015123;28;20038;-67
2022/08/02 03:39:09;;;;;;;3.95;1.95;;;12.00;92.50;;;;;;5014897;28;20022;-71
2022/08/02 03:41:37;;;;;;;3.72;2.22;;;12.00;92.60;;;;;;5014463;28;20033;-66
2022/08/02 03:44:04;;;;;;;3.35;2.20;;;12.00;92.60;;;;;;5029622;28;20464;-68
2022/08/02 03:46:31;;;;;;;4.82;2.45;;;12.00;92.70;;;;;;4997254;28;20046;-66
2022/08/02 03:48:57;;;;;;;5.68;2.25;;;12.00;93.10;;;;;;5029217;28;20105;-65
2022/08/02 03:51:23;;;;;;;3.85;2.08;;;12.00;93.30;;;;;;4997271;28;20014;-72
2022/08/02 03:53:49;;;;;;;4.65;2.10;;;11.90;93.30;;;;;;5014605;28;20022;-70
2022/08/02 03:56:15;;;;;;;3.90;2.20;;;11.90;93.40;;;;;;5013948;28;20113;-68
2022/08/02 03:58:41;;;;;;;4.03;2.10;;;11.90;93.50;;;;;;5014597;28;20451;-71
2022/08/02 04:01:07;;;;;;;4.32;2.00;;;11.90;93.40;;;;;;5014283;28;20053;-71
2022/08/02 04:03:32;;;;;;;3.90;2.00;;;11.90;93.40;;;;;;5013775;28;20084;-68
2022/08/02 04:05:58;;;;;;;5.72;2.25;;;11.90;93.50;;;;;;5014158;28;20028;-74
2022/08/02 04:08:24;;;;;;;4.50;2.08;;;11.90;93.50;;;;;;5013910;28;20057;-70
2022/08/02 04:13:36;;;;;;;8.27;1.90;;;11.90;93.60;;;;;;5014866;28;20149;-72
2022/08/02 04:16:12;;;;;;;5.60;1.83;;;11.90;93.50;;;;;;5013591;28;20044;-66
2022/08/02 04:19:06;;;;;;;6.45;2.20;;;12.00;93.50;;;;;;5029535;28;20516;-73
2022/08/02 04:21:39;;;;;;;3.10;2.03;;;12.10;93.40;;;;;;5013690;28;20030;-73
2022/08/02 04:24:07;;;;;;;3.97;2.35;;;12.10;93.30;;;;;;4995563;28;20022;-74
2022/08/02 04:26:35;;;;;;;3.88;2.30;;;12.10;93.30;;;;;;5029531;28;20422;-74
2022/08/02 04:29:01;;;;;;;4.28;2.40;;;12.20;93.30;;;;;;5013688;28;20025;-74
2022/08/02 04:31:27;;;;;;;5.50;2.60;;;12.20;93.40;;;;;;5013333;28;20025;-74
2022/08/02 04:33:53;;;;;;;6.18;2.33;;;12.20;93.70;;;;;;5013629;28;20061;-75
2022/08/02 04:36:19;;;;;;;5.95;2.22;;;12.20;93.40;;;;;;5026946;28;20065;-73
2022/08/02 04:38:47;;;;;;;5.55;2.20;;;12.30;93.40;;;;;;5032838;28;20431;-73
2022/08/02 04:41:13;;;;;;;4.97;2.33;;;12.40;93.40;;;;;;5024947;28;20474;-75
2022/08/02 04:43:38;;;;;;;3.75;2.33;;;12.50;93.30;;;;;;5022544;28;20108;-76
2022/08/02 04:46:04;;;;;;;5.88;2.33;;;12.60;93.30;;;;;;5013631;28;20458;-76
2022/08/02 04:48:30;;;;;;;3.80;1.90;;;12.60;93.20;;;;;;5013976;28;20165;-74
2022/08/02 04:50:55;;;;;;;4.93;2.50;;;12.70;93.20;;;;;;5013800;28;20053;-77
2022/08/02 04:53:21;;;;;;;5.82;2.97;;;12.70;93.10;;;;;;5016349;28;20363;-64
2022/08/02 04:55:47;;;;;;;5.90;2.60;;;12.70;93.20;;;;;;5012940;28;20052;-63
2022/08/02 04:58:13;;;;;;;4.63;2.78;;;12.80;93.20;;;;;;5026534;28;20609;-64
2022/08/02 05:00:39;;;;;;;4.28;2.42;;;12.80;93.20;;;;;;5032716;28;20021;-64
2022/08/02 05:03:05;;;;;;;4.68;2.60;;;12.80;93.20;;;;;;5022759;28;20180;-62
2022/08/02 05:05:31;;;;;;;7.82;2.90;;;12.90;93.30;;;;;;5019581;28;20100;-63
2022/08/02 05:07:57;;;;;;;6.05;2.80;;;13.00;93.30;;;;;;5014872;28;20529;-62
2022/08/02 05:10:23;;;;;;;7.32;2.88;;;13.20;93.20;;;;;;5033268;28;20456;-62
2022/08/02 05:12:49;;;;;;;5.55;2.90;;;13.40;93.00;;;;;;5014162;28;20114;-67
2022/08/02 05:15:15;;;;;;;6.32;2.85;;;13.60;92.80;;;;;;5005537;28;20022;-62
2022/08/02 05:17:41;;;;;;;4.85;3.03;;;13.80;92.80;;;;;;5024753;28;20056;-62
2022/08/02 05:20:08;;;;;;;7.57;3.58;;;14.00;92.70;;;;;;5012659;28;20026;-62
2022/08/02 05:22:33;;;;;;;7.30;3.55;;;14.10;92.70;;;;;;5013090;28;20113;-63
2022/08/02 05:24:59;;;;;;;7.53;2.97;;;14.20;92.70;;;;;;4995149;28;20105;-63
2022/08/02 05:27:24;;;;;;;5.72;3.30;;;14.30;92.60;;;;;;5024135;28;20052;-63
2022/08/02 05:29:50;;;;;;;4.38;2.70;;;14.40;92.50;;;;;;5008297;28;20081;-62
2022/08/02 05:32:17;;;;;;;5.22;2.72;;;14.50;92.40;;;;;;5012825;28;20117;-62
2022/08/02 05:34:43;;;;;;;6.38;3.50;;;14.60;92.40;;;;;;5012184;28;20156;-61
2022/08/02 05:37:08;;;;;;;9.32;4.15;;;14.70;92.50;;;;;;5023729;28;20052;-61
2022/08/02 05:39:34;;;;;;;11.30;4.30;;;14.80;92.40;;;;;;5032200;28;20447;-62
2022/08/02 05:41:59;;;;;;;5.75;3.20;;;14.90;92.50;;;;;;5031617;28;20043;-62
2022/08/02 05:44:25;;;;;;;7.78;3.47;;;14.90;92.30;;;;;;5031792;28;20026;-61
2022/08/02 05:46:51;;;;;;;8.07;4.45;;;15.00;92.30;;;;;;5031488;28;20080;-78
2022/08/02 05:49:16;;;;;;;5.97;3.70;;;15.00;92.50;;;;;;5002331;28;20083;-68
2022/08/02 05:51:51;;;;;;;6.35;3.80;;;15.00;92.50;;;;;;5025028;28;20040;-75
2022/08/02 05:54:40;;;;;;;8.07;3.80;;;15.00;92.60;;;;;;4997584;28;20398;-72
2022/08/02 05:57:30;;;;;;;7.50;4.57;;;15.00;92.70;;;;;;5019366;28;20103;-66
2022/08/02 06:00:08;;;;;;;8.45;4.97;;;15.10;92.80;;;;;;5020687;28;20029;-73
2022/08/02 06:03:08;;;;;;;7.47;4.38;;;15.10;92.90;;;;;;5030638;28;20029;-70
2022/08/02 06:05:38;;;;;;;8.98;3.75;;;15.20;92.90;;;;;;4997182;28;20033;-65
2022/08/02 06:08:08;;;;;;;6.13;3.65;;;15.20;93.00;;;;;;5013581;28;20025;-70
2022/08/02 06:10:37;;;;;;;6.63;3.65;;;15.30;92.80;;;;;;5047648;28;20120;-71
2022/08/02 06:13:15;;;;;;;4.53;3.20;;;15.40;92.50;;;;;;5031578;28;20033;-78
2022/08/02 06:15:41;;;;;;;6.40;3.45;;;15.50;92.40;;;;;;5029598;28;20022;-69
2022/08/02 06:18:08;;;;;;;5.50;4.00;;;15.60;92.20;;;;;;5029499;28;20138;-70
2022/08/02 06:20:35;;;;;;;10.00;4.30;;;15.70;92.10;;;;;;5031638;28;20581;-73
2022/08/02 06:23:06;;;;;;;10.82;6.85;;;15.80;92.00;;;;;;5012727;28;20319;-70
2022/08/02 06:25:33;;;;;;;11.35;6.65;;;15.90;91.80;;;;;;5031362;28;20490;-66
2022/08/02 06:28:00;;;;;;;6.85;4.13;;;16.00;91.70;;;;;;5031420;28;20021;-68
2022/08/02 06:30:26;;;;;;;5.47;3.80;;;16.10;91.60;;;;;;5013170;28;20215;-73
2022/08/02 06:32:52;;;;;;;7.18;3.65;;;16.30;91.50;;;;;;5013574;28;20029;-67
2022/08/02 06:35:18;;;;;;;5.70;3.63;;;16.30;91.30;;;;;;5031178;28;20049;-65
2022/08/02 06:37:51;;;;;;;7.68;4.22;;;16.50;91.20;;;;;;5031265;28;20059;-67
2022/08/02 06:40:23;;;;;;;7.97;4.32;;;16.60;91.00;;;;;;5031406;28;20026;-72
2022/08/02 06:43:00;;;;;;;9.15;5.80;;;16.70;90.80;;;;;;5013327;28;20037;-77
2022/08/02 06:45:26;;;;;;;7.53;4.57;;;16.80;91.10;;;;;;5031778;28;20028;-70
2022/08/02 06:47:53;;;;;;;8.90;4.13;;;17.00;91.10;;;;;;5013368;28;20033;-72
2022/08/02 06:50:19;;;;;;;7.15;4.28;;;17.10;91.00;;;;;;5030910;28;20057;-71
2022/08/02 06:52:44;;;;;;;8.25;4.35;;;17.20;90.90;;;;;;5031054;28;20061;-76
2022/08/02 06:55:10;;;;;;;6.50;4.05;;;17.20;90.90;;;;;;5013564;28;20458;-72
2022/08/02 06:57:35;;;;;;;8.27;4.95;;;17.20;90.80;;;;;;5030829;28;20052;-76
2022/08/02 07:00:07;;;;;;;10.48;4.30;;;17.30;90.80;;;;;;5031590;28;20475;-74
2022/08/02 07:02:38;;;;;;;9.32;4.47;;;17.40;90.80;;;;;;5013693;28;20021;-73
2022/08/02 07:05:05;;;;;;;7.35;4.25;;;17.50;90.70;;;;;;5030503;28;20150;-74
2022/08/02 07:07:31;;;;;;;8.02;4.38;;;17.60;90.80;;;;;;5030322;28;20017;-70
2022/08/02 07:09:57;;;;;;;7.40;4.75;;;17.80;90.50;;;;;;5013274;28;20048;-77
2022/08/02 07:12:23;;;;;;;7.72;5.32;;;17.90;90.30;;;;;;5030688;28;20034;-79
2022/08/02 07:14:49;;;;;;;7.90;5.05;;;18.10;90.10;;;;;;5031125;28;20159;-78
2022/08/02 07:17:14;;;;;;;10.13;5.75;;;18.30;89.70;;;;;;5031204;28;20501;-77
2022/08/02 07:19:40;;;;;;;10.40;4.95;;;18.40;89.70;;;;;;5030483;28;20078;-69
2022/08/02 07:22:05;;;;;;;8.35;4.80;;;18.60;89.90;;;;;;5030544;28;20036;-68
2022/08/02 07:24:31;;;;;;;9.20;4.95;;;18.70;89.50;;;;;;5030936;28;20080;-62
2022/08/02 07:26:57;;;;;;;8.65;5.30;;;18.90;89.00;;;;;;5030234;28;20439;-62
2022/08/02 07:29:23;;;;;;;11.00;5.50;;;19.10;89.20;;;;;;5030980;28;20028;-64
2022/08/02 07:31:49;;;;;;;8.88;4.55;;;19.30;88.50;;;;;;5030556;28;20104;-64
2022/08/02 07:34:15;;;;;;;8.77;5.22;;;19.40;87.80;;;;;;5030166;28;20126;-62
2022/08/02 07:36:40;;;;;;;10.63;5.50;;;19.50;87.50;;;;;;5012697;28;20132;-61
2022/08/02 07:39:06;;;;;;;7.25;4.30;;;19.70;86.70;;;;;;5030480;28;20040;-64
2022/08/02 07:41:31;;;;;;;8.18;4.90;;;19.80;86.20;;;;;;5030119;28;20022;-62
2022/08/02 07:43:57;;;;;;;9.20;4.65;;;19.90;85.70;;;;;;5030366;28;20072;-62
2022/08/02 07:46:23;;;;;;;6.68;4.30;;;20.00;84.90;;;;;;5012315;28;20121;-62
2022/08/02 07:48:48;;;;;;;8.60;4.20;;;20.10;84.20;;;;;;5012644;28;20104;-63
2022/08/02 07:51:14;;;;;;;6.95;3.88;;;20.30;83.90;;;;;;5031017;28;20032;-63
2022/08/02 07:53:40;;;;;;;8.00;4.32;;;20.40;83.20;;;;;;5029994;28;20451;-62
2022/08/02 07:56:05;;;;;;;8.50;4.25;;;20.60;82.80;;;;;;5030477;28;20555;-62
2022/08/02 07:58:31;;;;;;;6.97;3.80;;;20.60;82.30;;;;;;5030385;28;20323;-62
2022/08/02 08:00:57;;;;;;;7.72;3.70;;;20.70;81.90;;;;;;5029628;28;20053;-62
2022/08/02 08:03:22;;;;;;;7.85;4.35;;;20.70;81.60;;;;;;5030713;28;20105;-67
2022/08/02 08:05:48;;;;;;;10.38;4.50;;;20.80;81.70;;;;;;5012661;28;20017;-71
2022/08/02 08:08:14;;;;;;;8.00;4.05;;;21.00;81.10;;;;;;5029841;28;20025;-75
2022/08/02 08:10:40;;;;;;;7.30;3.90;;;21.30;80.10;;;;;;5030381;28;20531;-76
2022/08/02 08:13:06;;;;;;;4.53;3.33;;;21.50;79.00;;;;;;5025536;28;20049;-71
2022/08/02 08:15:31;;;;;;;7.65;3.95;;;21.60;78.60;;;;;;5017069;28;20025;-77
2022/08/02 08:17:57;;;;;;;7.53;4.43;;;21.70;77.80;;;;;;5029839;28;20112;-74
2022/08/02 08:20:23;;;;;;;8.55;4.35;;;21.70;77.70;;;;;;5018341;28;20432;-78
2022/08/02 08:22:49;;;;;;;8.75;4.10;;;21.70;78.00;;;;;;5008079;28;20033;-71
2022/08/02 08:25:15;;;;;;;6.28;3.33;;;21.80;78.30;;;;;;5021741;28;20026;-68
2022/08/02 08:27:48;;;;;;;5.28;3.22;;;22.00;78.30;;;;;;5011752;28;20030;-70
2022/08/02 08:30:14;;;;;;;6.57;3.58;;;22.10;78.00;;;;;;4994333;28;20105;-79
2022/08/02 08:32:40;;;;;;;6.07;3.42;;;22.20;77.40;;;;;;5013199;28;20580;-74
2022/08/02 08:35:07;;;;;;;6.15;4.07;;;22.40;77.50;;;;;;5022128;28;20172;-77
2022/08/02 08:37:34;;;;;;;7.25;3.95;;;22.50;77.50;;;;;;5030730;28;20108;-78
2022/08/02 08:39:59;;;;;;;4.07;3.08;;;22.70;76.50;;;;;;5032987;28;20023;-79
2022/08/02 08:42:26;;;;;;;5.35;3.20;;;22.80;76.30;;;;;;5033396;28;20041;-79
2022/08/02 08:44:53;;;;;;;7.85;3.97;;;22.90;75.80;;;;;;5032635;28;20053;-75
2022/08/02 08:47:21;;;;;;;8.35;3.50;;;23.00;75.50;;;;;;5033136;28;20525;-78
2022/08/02 08:49:52;;;;;;;5.53;3.17;;;23.10;74.90;;;;;;5032745;28;20034;-73
2022/08/02 08:52:22;;;;;;;9.43;3.80;;;23.30;74.70;;;;;;5033235;28;20485;-78
2022/08/02 08:54:48;;;;;;;5.72;3.30;;;23.30;72.20;;;;;;5015436;28;20033;-75
2022/08/02 08:57:15;;;;;;;6.70;3.50;;;23.40;72.40;;;;;;5014869;28;20120;-70
2022/08/02 08:59:41;;;;;;;7.00;4.03;;;23.50;73.10;;;;;;5033259;28;20470;-67
2022/08/02 09:02:09;;;;;;;6.20;3.10;;;23.70;72.40;;;;;;5014780;28;20033;-75
2022/08/02 09:04:35;;;;;;;7.05;3.78;;;23.80;71.60;;;;;;5032252;28;20120;-76
2022/08/02 09:07:01;;;;;;;5.68;3.58;;;23.80;71.30;;;;;;5014686;28;20486;-68
2022/08/02 09:09:26;;;;;;;7.72;3.50;;;23.70;71.20;;;;;;5032245;28;20029;-72
2022/08/02 09:11:52;;;;;;;5.55;2.80;;;23.70;70.80;;;;;;5031946;28;20021;-75
2022/08/02 09:14:28;;;;;;;6.55;3.17;;;23.60;70.90;;;;;;5032517;28;20029;-76
2022/08/02 09:17:06;;;;;;;6.75;3.47;;;23.60;71.00;;;;;;5032352;28;20038;-79
2022/08/02 09:19:32;;;;;;;6.95;3.20;;;23.60;70.30;;;;;;5014302;28;20025;-78
2022/08/02 09:22:04;;;;;;;7.13;3.38;;;23.60;70.90;;;;;;5032085;28;20029;-73
2022/08/02 09:24:44;;;;;;;5.38;2.85;;;23.70;70.40;;;;;;5014937;28;20021;-76
2022/08/02 09:27:15;;;;;;;5.93;3.20;;;23.80;69.10;;;;;;5031927;28;20037;-76
2022/08/02 09:29:45;;;;;;;8.10;3.65;;;23.80;68.50;;;;;;5031342;28;20025;-78
2022/08/02 09:32:11;;;;;;;6.28;3.40;;;23.90;67.80;;;;;;5031648;28;20029;-79
2022/08/02 09:34:47;;;;;;;4.88;3.00;;;24.00;67.70;;;;;;5032260;28;20049;-69
2022/08/02 09:37:27;;;;;;;5.72;2.78;;;24.00;67.70;;;;;;5032137;28;20029;-78
2022/08/02 09:39:54;;;;;;;5.47;2.80;;;24.10;67.40;;;;;;5013608;28;20030;-73
2022/08/02 09:42:20;;;;;;;7.40;3.20;;;24.20;67.20;;;;;;5013834;28;20449;-79
2022/08/02 09:44:56;;;;;;;5.15;2.20;;;24.30;66.10;;;;;;5014372;28;20021;-64
2022/08/02 09:47:25;;;;;;;5.03;2.90;;;24.40;65.40;;;;;;5031136;28;20382;-64
2022/08/02 09:49:54;;;;;;;3.67;2.33;;;24.40;64.60;;;;;;5031307;28;20030;-63
2022/08/02 09:52:38;;;;;;;5.18;2.75;;;24.50;63.10;;;;;;5013890;28;20067;-62
2022/08/02 09:55:04;;;;;;;5.30;2.13;;;24.50;62.80;;;;;;5030949;28;20492;-62
2022/08/02 09:57:32;;;;;;;4.13;1.90;;;24.60;62.80;;;;;;5031723;28;20037;-62
2022/08/02 09:59:58;;;;;;;4.38;2.00;;;24.70;60.80;;;;;;5030632;28;20113;-62
2022/08/02 10:02:24;;;;;;;4.40;1.95;;;24.80;60.00;;;;;;5031743;28;20026;-62
2022/08/02 10:04:50;;;;;;;4.00;2.15;;;24.80;58.90;;;;;;5031361;28;20018;-63
2022/08/02 10:07:17;;;;;;;3.95;2.10;;;24.80;57.20;;;;;;5031199;28;20128;-61
2022/08/02 10:09:44;;;;;;;3.38;1.67;;;24.80;57.60;;;;;;5031329;28;20343;-61
2022/08/02 10:12:12;;;;;;;2.45;1.88;;;24.90;57.80;;;;;;5013434;28;20133;-61
2022/08/02 10:14:38;;;;;;;2.58;1.50;;;25.00;56.80;;;;;;5031246;28;20438;-62
2022/08/02 10:17:05;;;;;;;3.78;2.00;;;25.10;55.50;;;;;;5031032;28;20048;-62
2022/08/02 10:19:31;;;;;;;4.25;1.70;;;25.10;56.70;;;;;;5031783;28;20455;-70
2022/08/02 10:22:03;;;;;;;3.00;1.70;;;25.20;57.40;;;;;;5030543;28;20029;-74
2022/08/02 10:24:31;;;;;;;1.88;1.60;;;25.40;56.70;;;;;;5031550;28;20544;-75
2022/08/02 10:26:58;;;;;;;1.98;1.20;;;25.50;55.30;;;;;;5012996;28;20033;-76
2022/08/02 10:29:33;;;;;;;2.08;1.50;;;25.60;54.40;;;;;;5011468;28;20549;-71
2022/08/02 10:32:12;;;;;;;1.98;1.10;;;25.70;54.20;;;;;;5026620;28;20022;-67
2022/08/02 10:34:59;;;;;;;1.88;1.23;;;25.80;54.00;;;;;;5011343;28;20414;-71
2022/08/02 10:37:31;;;;;;;2.40;1.63;;;25.80;54.00;;;;;;5010653;28;20382;-75
2022/08/02 10:39:57;;;;;;;3.38;1.30;;;25.90;54.10;;;;;;5011159;28;20114;-74
2022/08/02 10:42:50;;;;;;;3.03;1.17;;;25.90;54.10;;;;;;5010460;28;20046;-78
2022/08/02 10:45:18;;;;;;;2.72;1.40;;;26.00;54.80;;;;;;5010421;28;20041;-72
2022/08/02 10:48:06;;;;;;;1.63;1.20;;;26.20;54.80;;;;;;5011487;28;20080;-77
2022/08/02 10:50:44;;;;;;;3.55;1.40;;;26.30;55.00;;;;;;5010813;28;20108;-65
2022/08/02 10:53:25;;;;;;;2.42;1.23;;;26.50;53.60;;;;;;4993377;28;20032;-74
2022/08/02 10:55:52;;;;;;;1.80;1.17;;;26.40;53.10;;;;;;5011064;28;20065;-77
2022/08/02 10:58:21;;;;;;;2.13;1.02;;;26.40;53.50;;;;;;5010866;28;20030;-67
2022/08/02 11:00:47;;;;;;;2.50;1.40;;;26.30;53.80;;;;;;5010700;28;20026;-69
2022/08/02 11:03:28;;;;;;;1.92;1.20;;;26.50;53.70;;;;;;5010601;28;20030;-75
2022/08/02 11:06:04;;;;;;;;;;;26.70;54.10;;;;;;5011129;28;20057;-72
2022/08/02 11:08:30;;;;;;;3.50;1.40;;;27.00;53.50;;;;;;5010994;28;20000;-67
2022/08/02 11:11:13;;;;;;;2.65;1.33;;;27.20;52.50;;;;;;5009949;28;20128;-74
2022/08/02 11:13:59;;;;;;;1.98;1.33;;;27.20;52.20;;;;;;5010956;28;20482;-72
2022/08/02 11:16:56;;;;;;;2.80;1.33;;;27.10;51.70;;;;;;5010786;28;20032;-67
2022/08/02 11:19:23;;;;;;;1.35;1.05;;;27.10;52.30;;;;;;5010305;28;20022;-70
2022/08/02 11:22:04;;;;;;;1.63;1.10;;;27.10;52.10;;;;;;5010336;28;20026;-77
2022/08/02 11:24:39;;;;;;;2.47;1.10;;;27.30;52.30;;;;;;5010283;28;20057;-73
2022/08/02 11:27:07;;;;;;;2.30;1.30;;;27.40;52.10;;;;;;5010275;28;20052;-71
2022/08/02 11:29:32;;;;;;;1.42;0.90;;;27.50;51.80;;;;;;5010988;28;20030;-74
2022/08/02 11:31:58;;;;;;;2.50;1.13;;;27.50;51.50;;;;;;5009731;28;20111;-76
2022/08/02 11:34:24;;;;;;;2.17;1.00;;;27.60;51.50;;;;;;5010575;28;20046;-76
2022/08/02 11:36:51;;;;;;;2.15;1.30;;;27.60;50.90;;;;;;5010643;28;20034;-74
2022/08/02 11:39:21;;;;;;;2.97;0.95;;;27.60;50.70;;;;;;5010004;28;20046;-77
2022/08/02 11:41:58;;;;;;;2.13;1.30;;;27.50;51.00;;;;;;5026185;28;20033;-71
2022/08/02 11:44:25;;;;;;;1.75;1.30;;;27.60;51.10;;;;;;5011756;28;20438;-74
2022/08/02 11:47:09;;;;;;;1.95;1.27;;;27.40;50.90;;;;;;5011140;28;20033;-79
2022/08/02 11:49:36;;;;;;;1.50;1.23;;;27.40;51.00;;;;;;5011317;28;20025;-78
2022/08/02 11:52:05;;;;;;;1.85;1.15;;;27.40;50.80;;;;;;5010445;28;20459;-77
2022/08/02 11:54:33;;;;;;;3.28;1.20;;;27.40;50.30;;;;;;5013467;28;20473;-76
2022/08/02 11:57:19;;;;;;;2.35;1.23;;;27.40;50.30;;;;;;5014253;28;20034;-79
2022/08/02 11:59:47;;;;;;;1.50;0.95;;;27.60;50.40;;;;;;5014115;28;20050;-80
2022/08/02 12:02:15;;;;;;;2.05;1.20;;;27.70;50.20;;;;;;5029890;28;20116;-79
2022/08/02 12:04:41;;;;;;;3.17;0.90;;;27.80;49.70;;;;;;5014555;28;20029;-75
2022/08/02 12:07:07;;;;;;;2.50;1.10;;;28.00;49.80;;;;;;4996192;28;20058;-76
2022/08/02 12:09:34;;;;;;;1.50;0.93;;;28.20;48.70;;;;;;5014553;28;20058;-62
2022/08/02 12:12:00;;;;;;;1.55;1.10;;;28.30;48.50;;;;;;5013970;28;20479;-62
2022/08/02 12:14:29;;;;;;;2.53;1.08;;;28.30;48.50;;;;;;5028755;28;20026;-62
2022/08/02 12:19:41;;;;;;;2.78;1.40;;;28.40;47.90;;;;;;5014832;28;20441;-65
2022/08/02 12:22:14;;;;;;;2.03;1.35;;;28.30;47.90;;;;;;5013135;28;20042;-64
2022/08/02 12:24:42;;;;;;;1.45;1.20;;;28.30;47.90;;;;;;5014406;28;20076;-63
2022/08/02 12:27:08;;;;;;;3.05;1.67;;;28.20;47.50;;;;;;5013098;28;20033;-63
2022/08/02 12:29:36;;;;;;;1.33;0.80;;;28.20;47.30;;;;;;4995867;28;20100;-63
2022/08/02 12:32:03;;;;;;;2.25;1.20;;;28.10;47.70;;;;;;5013533;28;20032;-61
2022/08/02 12:34:31;;;;;;;1.40;0.90;;;28.20;47.10;;;;;;5013763;28;20088;-64
2022/08/02 12:37:08;;;;;;;1.30;1.20;;;28.10;47.10;;;;;;5013237;28;20445;-72
2022/08/02 12:39:48;;;;;;;1.52;1.08;;;28.20;47.70;;;;;;5013887;28;20022;-69
2022/08/02 12:42:15;;;;;;;2.65;1.00;;;28.30;48.20;;;;;;5013248;28;20022;-70
2022/08/02 12:44:57;;;;;;;2.15;1.13;;;28.50;47.50;;;;;;5013886;28;20100;-77
2022/08/02 12:47:23;;;;;;;1.95;1.40;;;28.70;46.60;;;;;;5013804;28;20453;-69
2022/08/02 12:50:22;;;;;;;2.83;1.27;;;28.70;45.90;;;;;;5012762;28;20021;-77
2022/08/02 12:52:49;;;;;;;2.17;1.20;;;28.80;45.10;;;;;;5013574;28;20112;-68
2022/08/02 12:55:26;;;;;;;1.15;0.90;;;28.80;45.30;;;;;;4996008;28;20115;-70
2022/08/02 12:57:57;;;;;;;1.52;1.10;;;28.80;45.60;;;;;;5013063;28;20462;-73
2022/08/02 13:00:30;;;;;;;1.73;0.93;;;29.00;45.20;;;;;;5013563;28;20045;-77
2022/08/02 13:02:56;;;;;;;2.50;1.20;;;29.10;45.10;;;;;;5012617;28;20033;-75